Time;durP1;ratioP1;P1;durP2;ratioP2;P2;SDS_P1;SDS_P2;PMS_P1;PMS_P2;Temp;Humidity;BMP_temperature;BMP_pressure;BME280_temperature;BME280_humidity;BME280_pressure;Samples;Min_cycle;Max_cycle;Signal;HPM_P1;HPM_P2
2023/09/10 00:00:21;;;;;;;9.00;6.18;;;;;;;;;;5046601;28;20033;-83
2023/09/10 00:02:47;;;;;;;7.85;5.43;;;;;;;;;;5041057;28;20033;-83
2023/09/10 00:05:12;;;;;;;9.43;6.05;;;;;;;;;;5041880;28;20037;-83
2023/09/10 00:07:38;;;;;;;7.13;5.68;;;;;;;;;;5039724;28;20414;-82
2023/09/10 00:10:04;;;;;;;8.48;5.70;;;;;;;;;;5042317;28;20033;-81
2023/09/10 00:12:30;;;;;;;8.23;6.20;;;;;;;;;;5047317;28;20029;-82
2023/09/10 00:14:55;;;;;;;7.93;5.93;;;;;;;;;;5047354;28;20055;-81
2023/09/10 00:17:21;;;;;;;8.30;6.15;;;;;;;;;;5041402;28;20031;-81
2023/09/10 00:19:46;;;;;;;8.32;6.38;;;;;;;;;;5038963;28;20140;-82
2023/09/10 00:22:12;;;;;;;7.97;6.28;;;;;;;;;;5043294;28;20074;-82
2023/09/10 00:24:37;;;;;;;8.50;5.88;;;;;;;;;;5049621;28;20040;-82
2023/09/10 00:27:03;;;;;;;7.63;5.53;;;;;;;;;;5045194;28;20036;-81
2023/09/10 00:29:28;;;;;;;7.43;5.90;;;;;;;;;;5042913;28;20042;-81
2023/09/10 00:31:54;;;;;;;10.13;6.28;;;;;;;;;;5040442;28;20064;-81
2023/09/10 00:34:19;;;;;;;8.73;6.03;;;;;;;;;;5048978;28;20063;-82
2023/09/10 00:36:44;;;;;;;6.30;5.53;;;;;;;;;;5047460;28;20121;-81
2023/09/10 00:39:10;;;;;;;8.25;5.95;;;;;;;;;;5052163;28;20057;-82
2023/09/10 00:41:38;;;;;;;8.15;6.45;;;;;;;;;;5042528;28;20037;-82
2023/09/10 00:44:04;;;;;;;6.50;5.50;;;;;;;;;;5041356;28;20486;-81
2023/09/10 00:46:30;;;;;;;6.55;5.88;;;;;;;;;;5050502;28;20036;-82
2023/09/10 00:48:56;;;;;;;7.15;5.85;;;;;;;;;;5053688;28;20171;-81
2023/09/10 00:51:22;;;;;;;8.40;5.88;;;;;;;;;;5042102;28;20051;-82
2023/09/10 00:53:49;;;;;;;10.10;5.90;;;;;;;;;;5042032;28;20045;-82
2023/09/10 00:56:14;;;;;;;6.80;5.65;;;;;;;;;;5052682;28;20053;-83
2023/09/10 00:58:40;;;;;;;8.35;5.85;;;;;;;;;;5046809;28;20021;-82
2023/09/10 01:01:06;;;;;;;6.30;5.40;;;;;;;;;;5049444;28;20048;-81
2023/09/10 01:03:34;;;;;;;9.05;5.50;;;;;;;;;;5038289;28;20032;-81
2023/09/10 01:06:00;;;;;;;8.80;5.57;;;;;;;;;;5037404;28;20091;-82
2023/09/10 01:08:26;;;;;;;7.40;5.20;;;;;;;;;;5040341;28;20383;-81
2023/09/10 01:11:04;;;;;;;11.43;5.60;;;;;;;;;;5044618;28;20497;-81
2023/09/10 01:14:01;;;;;;;7.68;5.40;;;;;;;;;;5047664;28;20108;-81
2023/09/10 01:16:34;;;;;;;7.72;5.50;;;;;;;;;;5041710;28;20120;-81
2023/09/10 01:19:06;;;;;;;6.90;5.32;;;;;;;;;;5037286;28;20029;-81
2023/09/10 01:21:41;;;;;;;6.38;5.30;;;;;;;;;;5039830;28;20052;-81
2023/09/10 01:24:40;;;;;;;8.55;5.38;;;;;;;;;;5045419;28;20284;-81
2023/09/10 01:27:06;;;;;;;11.45;5.80;;;;;;;;;;5045590;28;20483;-81
2023/09/10 01:29:33;;;;;;;9.95;5.50;;;;;;;;;;5049229;28;20036;-81
2023/09/10 01:32:01;;;;;;;6.47;4.68;;;;;;;;;;5039076;28;20022;-81
2023/09/10 01:34:32;;;;;;;7.68;5.00;;;;;;;;;;5048529;28;20052;-81
2023/09/10 01:37:07;;;;;;;5.30;4.43;;;;;;;;;;5043458;28;20026;-81
2023/09/10 01:39:40;;;;;;;7.68;4.80;;;;;;;;;;5040680;28;20033;-81
2023/09/10 01:42:07;;;;;;;5.07;4.57;;;;;;;;;;5047560;28;20065;-81
2023/09/10 01:44:35;;;;;;;7.68;4.88;;;;;;;;;;5049414;28;20346;-82
2023/09/10 01:47:01;;;;;;;8.00;5.35;;;;;;;;;;5047843;28;20025;-82
2023/09/10 01:49:27;;;;;;;7.10;4.90;;;;;;;;;;5056178;28;20025;-82
2023/09/10 01:51:52;;;;;;;6.03;5.22;;;;;;;;;;5052472;28;20060;-82
2023/09/10 01:54:18;;;;;;;6.53;5.25;;;;;;;;;;5051221;28;20056;-82
2023/09/10 01:56:44;;;;;;;8.77;5.38;;;;;;;;;;5050980;28;20059;-82
2023/09/10 01:59:09;;;;;;;6.95;5.53;;;;;;;;;;5053650;28;20017;-82
2023/09/10 02:01:35;;;;;;;7.75;5.32;;;;;;;;;;5059138;28;20092;-82
2023/09/10 02:04:00;;;;;;;7.18;5.70;;;;;;;;;;5048709;28;20048;-82
2023/09/10 02:06:26;;;;;;;6.70;5.55;;;;;;;;;;5060405;28;20093;-81
2023/09/10 02:08:51;;;;;;;10.90;6.05;;;;;;;;;;5063611;28;20033;-82
2023/09/10 02:11:18;;;;;;;6.45;5.43;;;;;;;;;;5047291;28;20057;-81
2023/09/10 02:13:45;;;;;;;6.85;5.75;;;;;;;;;;5053134;28;20575;-82
2023/09/10 02:16:12;;;;;;;6.70;5.80;;;;;;;;;;5041068;28;20502;-81
2023/09/10 02:18:37;;;;;;;7.97;5.57;;;;;;;;;;5051095;28;20039;-81
2023/09/10 02:21:10;;;;;;;8.05;5.72;;;;;;;;;;5041992;28;20048;-82
2023/09/10 02:23:36;;;;;;;7.10;5.18;;;;;;;;;;5047150;28;20132;-82
2023/09/10 02:26:02;;;;;;;7.72;5.50;;;;;;;;;;5055732;28;20042;-82
2023/09/10 02:28:27;;;;;;;6.43;5.30;;;;;;;;;;5040457;28;20108;-81
2023/09/10 02:30:53;;;;;;;6.95;5.70;;;;;;;;;;5043452;28;20025;-82
2023/09/10 02:33:19;;;;;;;7.50;5.38;;;;;;;;;;5049555;28;20068;-81
2023/09/10 02:35:45;;;;;;;6.93;5.90;;;;;;;;;;5045214;28;20040;-81
2023/09/10 02:38:10;;;;;;;7.13;5.10;;;;;;;;;;5040912;28;20029;-81
2023/09/10 02:40:36;;;;;;;8.18;5.47;;;;;;;;;;5039685;28;20368;-82
2023/09/10 02:43:01;;;;;;;6.38;4.88;;;;;;;;;;5054680;28;20037;-82
2023/09/10 02:45:27;;;;;;;5.47;4.75;;;;;;;;;;5048201;28;20042;-82
2023/09/10 02:47:52;;;;;;;7.60;4.57;;;;;;;;;;5043818;28;20352;-81
2023/09/10 02:50:18;;;;;;;5.28;4.60;;;;;;;;;;5051872;28;20029;-81
2023/09/10 02:52:43;;;;;;;6.28;5.45;;;;;;;;;;5047811;28;20029;-80
2023/09/10 02:55:09;;;;;;;6.55;5.00;;;;;;;;;;5053714;28;20030;-81
2023/09/10 02:57:34;;;;;;;7.28;5.30;;;;;;;;;;5062626;28;20120;-82
2023/09/10 03:00:00;;;;;;;7.03;5.40;;;;;;;;;;5041525;28;20040;-82
2023/09/10 03:02:25;;;;;;;8.20;5.63;;;;;;;;;;5041807;28;20025;-83
2023/09/10 03:04:51;;;;;;;9.00;5.43;;;;;;;;;;5040654;28;20037;-81
2023/09/10 03:07:16;;;;;;;7.55;5.25;;;;;;;;;;5044851;28;20037;-81
2023/09/10 03:09:42;;;;;;;6.15;5.45;;;;;;;;;;5032775;28;20029;-81
2023/09/10 03:12:28;;;;;;;7.72;5.85;;;;;;;;;;5049672;28;20025;-81
2023/09/10 03:14:55;;;;;;;9.85;6.28;;;;;;;;;;5040169;28;20035;-81
2023/09/10 03:17:21;;;;;;;7.00;5.78;;;;;;;;;;5048530;28;20101;-81
2023/09/10 03:19:48;;;;;;;7.68;5.82;;;;;;;;;;5045684;28;20029;-82
2023/09/10 03:22:15;;;;;;;6.50;5.70;;;;;;;;;;5051455;28;20034;-82
2023/09/10 03:24:40;;;;;;;10.05;6.30;;;;;;;;;;5042410;28;20486;-82
2023/09/10 03:27:06;;;;;;;7.65;6.13;;;;;;;;;;5042828;28;20022;-81
2023/09/10 03:29:33;;;;;;;8.95;5.70;;;;;;;;;;5041730;28;20083;-81
2023/09/10 03:31:59;;;;;;;8.48;6.30;;;;;;;;;;5052570;28;20031;-81
2023/09/10 03:34:24;;;;;;;9.07;6.10;;;;;;;;;;5041738;28;20470;-81
2023/09/10 03:36:50;;;;;;;10.00;6.85;;;;;;;;;;5044013;28;20025;-81
2023/09/10 03:39:15;;;;;;;7.18;5.90;;;;;;;;;;5049526;28;20123;-81
2023/09/10 03:41:41;;;;;;;7.60;6.15;;;;;;;;;;5043634;28;20568;-82
2023/09/10 03:44:06;;;;;;;8.30;6.53;;;;;;;;;;5045126;28;20120;-82
2023/09/10 03:46:32;;;;;;;7.90;6.70;;;;;;;;;;5046822;28;20025;-81
2023/09/10 03:48:57;;;;;;;9.15;6.40;;;;;;;;;;5038785;28;20509;-81
2023/09/10 03:51:23;;;;;;;8.82;5.88;;;;;;;;;;5039402;28;20136;-81
2023/09/10 03:53:48;;;;;;;7.72;6.28;;;;;;;;;;5050220;28;20063;-81
2023/09/10 03:56:14;;;;;;;7.18;5.78;;;;;;;;;;5044637;28;20036;-81
2023/09/10 03:58:39;;;;;;;9.57;5.65;;;;;;;;;;5040411;28;20371;-82
2023/09/10 04:01:05;;;;;;;8.63;5.90;;;;;;;;;;5052546;28;20111;-82
2023/09/10 04:03:31;;;;;;;8.80;5.90;;;;;;;;;;5051007;28;20029;-81
2023/09/10 04:05:56;;;;;;;6.57;5.43;;;;;;;;;;5050853;28;20086;-81
2023/09/10 04:08:22;;;;;;;7.75;6.30;;;;;;;;;;5022181;28;20013;-81
2023/09/10 04:10:47;;;;;;;8.10;5.93;;;;;;;;;;5049741;28;20092;-81
2023/09/10 04:13:12;;;;;;;7.65;5.63;;;;;;;;;;5039192;28;20027;-82
2023/09/10 04:15:38;;;;;;;7.32;5.80;;;;;;;;;;5037543;28;20442;-82
2023/09/10 04:18:05;;;;;;;7.78;5.75;;;;;;;;;;5043181;28;20029;-82
2023/09/10 04:20:30;;;;;;;9.07;6.25;;;;;;;;;;5062762;28;20086;-81
2023/09/10 04:22:56;;;;;;;8.20;6.40;;;;;;;;;;5039330;28;20033;-81
2023/09/10 04:25:22;;;;;;;8.15;6.03;;;;;;;;;;5041531;28;20029;-81
2023/09/10 04:27:47;;;;;;;8.82;5.72;;;;;;;;;;5057406;28;20060;-82
2023/09/10 04:30:13;;;;;;;7.45;6.47;;;;;;;;;;5048138;28;20081;-81
2023/09/10 04:32:39;;;;;;;8.95;6.28;;;;;;;;;;5035927;28;20033;-82
2023/09/10 04:35:07;;;;;;;8.55;6.05;;;;;;;;;;5046820;28;20032;-82
2023/09/10 04:37:34;;;;;;;7.88;6.22;;;;;;;;;;5053024;28;20489;-82
2023/09/10 04:40:05;;;;;;;8.20;5.90;;;;;;;;;;5023891;28;20057;-82
2023/09/10 04:42:31;;;;;;;8.63;6.10;;;;;;;;;;5049194;28;20029;-82
2023/09/10 04:44:56;;;;;;;11.70;6.00;;;;;;;;;;5045300;28;20025;-81
2023/09/10 04:47:22;;;;;;;9.02;5.88;;;;;;;;;;5056890;28;20025;-82
2023/09/10 04:49:48;;;;;;;11.13;5.78;;;;;;;;;;5048471;28;20029;-82
2023/09/10 04:52:15;;;;;;;10.77;5.90;;;;;;;;;;5051268;28;20029;-82
2023/09/10 04:54:41;;;;;;;7.60;5.45;;;;;;;;;;5050504;28;20033;-82
2023/09/10 04:57:08;;;;;;;10.05;6.18;;;;;;;;;;5053996;28;20387;-82
2023/09/10 04:59:35;;;;;;;7.38;6.25;;;;;;;;;;5038012;28;20045;-81
2023/09/10 05:02:01;;;;;;;9.27;6.28;;;;;;;;;;5024139;28;20076;-81
2023/09/10 05:04:27;;;;;;;7.78;6.40;;;;;;;;;;5045922;28;20029;-81
2023/09/10 05:06:52;;;;;;;9.55;6.13;;;;;;;;;;5040037;28;20051;-81
2023/09/10 05:09:18;;;;;;;7.13;6.10;;;;;;;;;;5036215;28;20394;-81
2023/09/10 05:11:44;;;;;;;10.07;6.40;;;;;;;;;;5046136;28;20025;-82
2023/09/10 05:14:09;;;;;;;8.38;6.55;;;;;;;;;;5037862;28;20037;-82
2023/09/10 05:16:35;;;;;;;11.05;6.70;;;;;;;;;;5041558;28;20775;-81
2023/09/10 05:19:01;;;;;;;7.68;6.20;;;;;;;;;;5047961;28;20040;-82
2023/09/10 05:21:27;;;;;;;8.35;6.07;;;;;;;;;;5041875;28;20029;-81
2023/09/10 05:23:53;;;;;;;7.18;6.03;;;;;;;;;;5035801;28;20029;-81
2023/09/10 05:26:19;;;;;;;7.72;6.22;;;;;;;;;;5049175;28;20033;-82
2023/09/10 05:28:44;;;;;;;9.32;6.43;;;;;;;;;;5059411;28;20026;-82
2023/09/10 05:31:10;;;;;;;11.55;6.65;;;;;;;;;;5048775;28;20038;-82
2023/09/10 05:33:38;;;;;;;11.90;6.60;;;;;;;;;;5048204;28;20038;-83
2023/09/10 05:36:04;;;;;;;11.40;6.22;;;;;;;;;;5048539;28;20032;-83
2023/09/10 05:38:31;;;;;;;8.40;6.45;;;;;;;;;;5053238;28;20040;-83
2023/09/10 05:41:02;;;;;;;8.93;6.32;;;;;;;;;;5052592;28;20029;-83
2023/09/10 05:43:29;;;;;;;10.73;6.68;;;;;;;;;;5051855;28;20052;-84
2023/09/10 05:45:56;;;;;;;8.63;6.18;;;;;;;;;;5034213;28;20044;-83
2023/09/10 05:48:22;;;;;;;8.60;6.70;;;;;;;;;;5045894;28;20059;-83
2023/09/10 05:50:48;;;;;;;8.18;6.65;;;;;;;;;;5037647;28;20093;-83
2023/09/10 05:53:14;;;;;;;7.93;6.55;;;;;;;;;;5050682;28;20136;-83
2023/09/10 05:55:41;;;;;;;9.98;6.50;;;;;;;;;;5058924;28;20124;-83
2023/09/10 05:58:08;;;;;;;7.20;6.38;;;;;;;;;;5054313;28;20030;-83
2023/09/10 06:00:33;;;;;;;7.63;6.50;;;;;;;;;;5054573;28;20105;-83
2023/09/10 06:02:59;;;;;;;7.75;6.55;;;;;;;;;;5057166;28;20490;-83
2023/09/10 06:05:24;;;;;;;8.27;6.97;;;;;;;;;;5048569;28;20025;-82
2023/09/10 06:07:50;;;;;;;9.63;7.40;;;;;;;;;;5034347;28;20044;-82
2023/09/10 06:10:15;;;;;;;7.82;7.03;;;;;;;;;;5045982;28;20549;-82
2023/09/10 06:12:41;;;;;;;8.40;6.90;;;;;;;;;;5046348;28;20107;-82
2023/09/10 06:15:08;;;;;;;10.35;7.10;;;;;;;;;;5047213;28;20025;-81
2023/09/10 06:17:35;;;;;;;8.75;7.10;;;;;;;;;;5043208;28;20394;-81
2023/09/10 06:20:02;;;;;;;7.43;6.40;;;;;;;;;;5042488;28;20037;-80
2023/09/10 06:22:28;;;;;;;8.70;7.03;;;;;;;;;;5032070;28;20141;-82
2023/09/10 06:24:54;;;;;;;7.80;6.55;;;;;;;;;;5038320;28;20713;-82
2023/09/10 06:27:20;;;;;;;8.15;6.88;;;;;;;;;;5042803;28;20013;-82
2023/09/10 06:29:45;;;;;;;7.43;6.55;;;;;;;;;;5041498;28;20108;-82
2023/09/10 06:32:11;;;;;;;10.27;6.63;;;;;;;;;;5046564;28;20041;-81
2023/09/10 06:34:37;;;;;;;7.45;6.50;;;;;;;;;;5038410;28;20025;-82
2023/09/10 06:37:03;;;;;;;9.32;6.57;;;;;;;;;;5035363;28;20036;-81
2023/09/10 06:39:30;;;;;;;10.93;6.88;;;;;;;;;;5037287;28;20083;-82
2023/09/10 06:41:55;;;;;;;11.32;6.95;;;;;;;;;;5039499;28;20034;-82
2023/09/10 06:44:24;;;;;;;10.98;6.70;;;;;;;;;;5038284;28;20029;-81
2023/09/10 06:46:49;;;;;;;8.68;6.97;;;;;;;;;;5034129;28;20078;-82
2023/09/10 06:49:14;;;;;;;8.40;6.47;;;;;;;;;;5041951;28;20025;-82
2023/09/10 06:51:40;;;;;;;8.27;6.43;;;;;;;;;;5043232;28;20386;-81
2023/09/10 06:54:06;;;;;;;9.73;6.60;;;;;;;;;;5045273;28;20041;-82
2023/09/10 06:56:31;;;;;;;7.68;6.40;;;;;;;;;;5035640;28;20068;-82
2023/09/10 06:58:57;;;;;;;10.20;6.70;;;;;;;;;;5036051;28;20025;-82
2023/09/10 07:01:22;;;;;;;8.65;6.45;;;;;;;;;;5048885;28;20136;-81
2023/09/10 07:03:52;;;;;;;7.63;6.35;;;;;;;;;;5052270;28;20020;-82
2023/09/10 07:06:17;;;;;;;7.80;6.40;;;;;;;;;;5049742;28;20033;-82
2023/09/10 07:08:43;;;;;;;7.53;6.55;;;;;;;;;;5034991;28;20454;-82
2023/09/10 07:11:09;;;;;;;7.53;6.13;;;;;;;;;;5049957;28;20032;-82
2023/09/10 07:13:36;;;;;;;8.55;5.78;;;;;;;;;;5046414;28;20041;-83
2023/09/10 07:16:02;;;;;;;8.95;6.53;;;;;;;;;;5051328;28;20474;-82
2023/09/10 07:18:32;;;;;;;10.90;6.25;;;;;;;;;;5050706;28;20033;-84
2023/09/10 07:21:02;;;;;;;7.53;6.07;;;;;;;;;;5044006;28;20561;-84
2023/09/10 07:23:28;;;;;;;7.63;6.10;;;;;;;;;;5038499;28;20509;-83
2023/09/10 07:25:55;;;;;;;7.15;5.78;;;;;;;;;;5045901;28;20081;-85
2023/09/10 07:28:20;;;;;;;9.82;6.25;;;;;;;;;;5048233;28;20021;-85
2023/09/10 07:30:46;;;;;;;8.02;6.18;;;;;;;;;;5037576;28;20067;-82
2023/09/10 07:33:11;;;;;;;6.47;5.80;;;;;;;;;;5036864;28;20033;-85
2023/09/10 07:35:37;;;;;;;6.85;5.70;;;;;;;;;;5040195;28;20033;-84
2023/09/10 07:38:02;;;;;;;7.70;5.90;;;;;;;;;;5044306;28;20033;-84
2023/09/10 07:40:28;;;;;;;6.97;6.22;;;;;;;;;;5041247;28;20045;-84
2023/09/10 07:42:54;;;;;;;7.57;5.80;;;;;;;;;;5035921;28;20068;-86
2023/09/10 07:45:19;;;;;;;7.47;5.80;;;;;;;;;;5040975;28;20489;-84
2023/09/10 07:47:45;;;;;;;8.68;6.22;;;;;;;;;;5036533;28;20503;-83
2023/09/10 07:50:10;;;;;;;6.68;5.70;;;;;;;;;;5042094;28;20024;-83
2023/09/10 07:52:36;;;;;;;10.57;6.05;;;;;;;;;;5038826;28;20041;-84
2023/09/10 07:55:01;;;;;;;9.07;6.10;;;;;;;;;;5035957;28;20063;-84
2023/09/10 07:57:27;;;;;;;7.45;5.70;;;;;;;;;;5036591;28;20498;-84
2023/09/10 07:59:52;;;;;;;8.82;6.05;;;;;;;;;;5044548;28;20029;-90
2023/09/10 08:02:18;;;;;;;7.15;5.25;;;;;;;;;;5042759;28;20052;-84
2023/09/10 08:04:44;;;;;;;7.05;5.80;;;;;;;;;;5037546;28;20029;-84
2023/09/10 08:07:10;;;;;;;8.30;5.93;;;;;;;;;;5033635;28;20033;-84
2023/09/10 08:09:37;;;;;;;6.95;5.85;;;;;;;;;;5048484;28;20064;-84
2023/09/10 08:12:03;;;;;;;7.60;5.38;;;;;;;;;;5044313;28;20112;-83
2023/09/10 08:14:29;;;;;;;7.18;5.63;;;;;;;;;;5041314;28;20478;-83
2023/09/10 08:16:55;;;;;;;7.78;5.75;;;;;;;;;;5036426;28;20113;-83
2023/09/10 08:19:21;;;;;;;9.30;5.50;;;;;;;;;;5037348;28;20042;-85
2023/09/10 08:21:46;;;;;;;8.05;5.65;;;;;;;;;;5051829;28;20124;-84
2023/09/10 08:24:12;;;;;;;8.57;5.07;;;;;;;;;;5041756;28;20129;-85
2023/09/10 08:26:37;;;;;;;6.72;5.55;;;;;;;;;;5037865;28;20033;-84
2023/09/10 08:29:03;;;;;;;7.70;5.82;;;;;;;;;;5045450;28;20029;-84
2023/09/10 08:31:28;;;;;;;9.45;5.85;;;;;;;;;;5048618;28;20534;-84
2023/09/10 08:33:54;;;;;;;7.57;5.60;;;;;;;;;;5039248;28;20079;-84
2023/09/10 08:36:19;;;;;;;6.95;5.80;;;;;;;;;;5037208;28;20047;-84
2023/09/10 08:38:45;;;;;;;8.38;5.82;;;;;;;;;;5039978;28;20033;-85
2023/09/10 08:41:28;;;;;;;6.47;5.88;;;;;;;;;;5044977;28;20063;-84
2023/09/10 08:43:56;;;;;;;8.02;5.68;;;;;;;;;;5040730;28;20041;-84
2023/09/10 08:46:29;;;;;;;7.22;5.60;;;;;;;;;;5037768;28;20037;-85
2023/09/10 08:48:56;;;;;;;11.20;5.47;;;;;;;;;;5038215;28;20039;-86
2023/09/10 08:51:23;;;;;;;9.75;5.35;;;;;;;;;;5035860;28;20045;-84
2023/09/10 08:53:50;;;;;;;9.20;5.50;;;;;;;;;;5046293;28;20029;-84
2023/09/10 08:56:16;;;;;;;5.57;4.93;;;;;;;;;;5041946;28;20029;-85
2023/09/10 08:58:43;;;;;;;7.88;5.70;;;;;;;;;;5044080;28;20025;-86
2023/09/10 09:01:09;;;;;;;6.22;5.07;;;;;;;;;;5046834;28;20028;-86
2023/09/10 09:03:35;;;;;;;6.35;5.57;;;;;;;;;;5043696;28;20047;-87
2023/09/10 09:06:06;;;;;;;6.57;5.43;;;;;;;;;;5037903;28;20048;-84
2023/09/10 09:08:45;;;;;;;7.38;5.40;;;;;;;;;;5037893;28;20543;-87
2023/09/10 09:11:12;;;;;;;6.00;5.38;;;;;;;;;;5035668;28;20041;-85
2023/09/10 09:13:40;;;;;;;7.47;5.65;;;;;;;;;;5034163;28;20116;-86
2023/09/10 09:16:07;;;;;;;7.25;5.57;;;;;;;;;;5038785;28;20059;-86
2023/09/10 09:18:35;;;;;;;8.77;5.70;;;;;;;;;;5041703;28;20048;-85
2023/09/10 09:21:33;;;;;;;6.55;5.40;;;;;;;;;;5045402;28;20078;-86
2023/09/10 09:24:00;;;;;;;8.05;5.35;;;;;;;;;;5017796;28;20069;-86
2023/09/10 09:26:27;;;;;;;7.75;5.30;;;;;;;;;;5038702;28;20104;-86
2023/09/10 09:28:56;;;;;;;6.03;5.10;;;;;;;;;;5038791;28;20056;-86
2023/09/10 09:31:22;;;;;;;6.60;5.55;;;;;;;;;;5036413;28;20041;-86
2023/09/10 09:33:47;;;;;;;6.20;5.03;;;;;;;;;;5034237;28;20375;-86
2023/09/10 09:36:13;;;;;;;7.30;5.40;;;;;;;;;;5034040;28;20467;-86
2023/09/10 09:38:46;;;;;;;6.85;5.32;;;;;;;;;;5042624;28;20033;-86
2023/09/10 09:41:16;;;;;;;6.50;5.22;;;;;;;;;;5043837;28;20115;-85
2023/09/10 09:43:41;;;;;;;6.32;5.13;;;;;;;;;;5041872;28;20033;-85
2023/09/10 09:46:07;;;;;;;5.60;5.00;;;;;;;;;;5037873;28;20071;-86
2023/09/10 09:48:34;;;;;;;6.35;5.47;;;;;;;;;;5038658;28;20132;-85
2023/09/10 09:51:01;;;;;;;6.45;5.70;;;;;;;;;;5043099;28;20474;-87
2023/09/10 09:53:28;;;;;;;7.38;5.70;;;;;;;;;;5037624;28;20067;-85
2023/09/10 09:56:16;;;;;;;7.38;6.03;;;;;;;;;;5038271;28;20087;-86
2023/09/10 09:58:44;;;;;;;6.03;5.30;;;;;;;;;;5044956;28;20032;-85
2023/09/10 10:01:09;;;;;;;6.68;5.53;;;;;;;;;;5037452;28;20071;-86
2023/09/10 10:03:37;;;;;;;6.55;5.57;;;;;;;;;;5038584;28;20467;-85
2023/09/10 10:06:03;;;;;;;10.82;5.68;;;;;;;;;;5037329;28;20040;-87
2023/09/10 10:08:30;;;;;;;7.18;5.80;;;;;;;;;;5037689;28;20111;-85
2023/09/10 10:10:56;;;;;;;7.57;6.00;;;;;;;;;;5036688;28;20120;-86
2023/09/10 10:13:23;;;;;;;6.57;5.57;;;;;;;;;;5034057;28;20033;-88
2023/09/10 10:15:51;;;;;;;7.75;6.00;;;;;;;;;;5035922;28;20041;-88
2023/09/10 10:18:18;;;;;;;8.43;6.30;;;;;;;;;;5045790;28;20061;-88
2023/09/10 10:20:49;;;;;;;8.25;6.22;;;;;;;;;;5048000;28;20036;-89
2023/09/10 10:23:15;;;;;;;10.18;6.22;;;;;;;;;;5044638;28;20516;-87
2023/09/10 10:25:42;;;;;;;7.88;6.00;;;;;;;;;;5047013;28;20736;-88
2023/09/10 10:28:09;;;;;;;8.25;5.95;;;;;;;;;;5042865;28;20083;-88
2023/09/10 10:31:04;;;;;;;6.97;5.82;;;;;;;;;;5048777;28;20431;-86
2023/09/10 10:33:32;;;;;;;6.57;5.88;;;;;;;;;;5041105;28;20029;-87
2023/09/10 10:36:06;;;;;;;9.05;5.90;;;;;;;;;;5040834;28;20052;-87
2023/09/10 10:38:34;;;;;;;6.85;5.90;;;;;;;;;;5035157;28;20036;-87
2023/09/10 10:41:08;;;;;;;7.05;6.13;;;;;;;;;;5049463;28;20552;-86
2023/09/10 10:43:40;;;;;;;7.70;5.90;;;;;;;;;;5046210;28;20033;-85
2023/09/10 10:46:08;;;;;;;7.38;6.03;;;;;;;;;;5040738;28;20045;-85
2023/09/10 10:48:38;;;;;;;7.97;6.00;;;;;;;;;;5044578;28;20080;-86
2023/09/10 10:51:10;;;;;;;7.03;5.60;;;;;;;;;;5046655;28;20128;-86
2023/09/10 10:53:35;;;;;;;7.63;6.20;;;;;;;;;;5039679;28;20041;-89
2023/09/10 10:56:04;;;;;;;7.00;5.47;;;;;;;;;;5037082;28;20186;-89
2023/09/10 10:58:30;;;;;;;6.50;5.43;;;;;;;;;;5049649;28;20029;-88
2023/09/10 11:00:58;;;;;;;8.98;5.72;;;;;;;;;;5049158;28;20043;-88
2023/09/10 11:03:24;;;;;;;7.88;5.75;;;;;;;;;;5044308;28;20044;-90
2023/09/10 11:05:52;;;;;;;7.35;5.82;;;;;;;;;;5039385;28;20083;-87
2023/09/10 11:08:25;;;;;;;6.38;5.60;;;;;;;;;;5045273;28;20525;-86
2023/09/10 11:10:51;;;;;;;6.93;5.63;;;;;;;;;;5041826;28;20060;-89
2023/09/10 11:13:16;;;;;;;9.98;5.43;;;;;;;;;;5051303;28;20063;-87
2023/09/10 11:16:04;;;;;;;8.13;5.60;;;;;;;;;;5044967;28;20060;-89
2023/09/10 11:18:35;;;;;;;7.30;5.60;;;;;;;;;;5035632;28;20029;-87
2023/09/10 11:21:12;;;;;;;6.90;5.35;;;;;;;;;;5033307;28;20041;-86
2023/09/10 11:23:39;;;;;;;6.85;5.43;;;;;;;;;;5044638;28;20071;-87
2023/09/10 11:26:14;;;;;;;6.57;5.25;;;;;;;;;;5052219;28;20041;-89
2023/09/10 11:29:03;;;;;;;6.60;5.68;;;;;;;;;;5044150;28;20029;-89
2023/09/10 11:34:15;;;;;;;7.90;5.35;;;;;;;;;;5038074;28;20112;-88
2023/09/10 11:36:44;;;;;;;7.40;5.70;;;;;;;;;;5042271;28;20041;-88
2023/09/10 11:39:11;;;;;;;6.95;5.63;;;;;;;;;;5039184;28;20044;-88
2023/09/10 11:41:37;;;;;;;6.00;5.32;;;;;;;;;;5042988;28;20113;-88
2023/09/10 11:44:02;;;;;;;6.20;5.60;;;;;;;;;;5048387;28;20033;-88
2023/09/10 11:46:28;;;;;;;7.03;5.50;;;;;;;;;;5051102;28;20056;-86
2023/09/10 11:48:53;;;;;;;6.57;5.07;;;;;;;;;;5039176;28;20104;-89
2023/09/10 11:51:19;;;;;;;7.15;5.45;;;;;;;;;;5039580;28;20033;-88
2023/09/10 11:53:45;;;;;;;6.95;5.80;;;;;;;;;;5037842;28;20255;-87
2023/09/10 11:56:11;;;;;;;6.53;5.00;;;;;;;;;;5036102;28;20048;-87
2023/09/10 11:58:37;;;;;;;7.28;5.72;;;;;;;;;;5053565;28;20033;-89
2023/09/10 12:01:03;;;;;;;8.80;5.60;;;;;;;;;;5054698;28;20040;-88
2023/09/10 12:03:30;;;;;;;7.90;5.18;;;;;;;;;;5044719;28;20650;-87
2023/09/10 12:05:57;;;;;;;8.05;5.22;;;;;;;;;;5050833;28;20025;-87
2023/09/10 12:08:23;;;;;;;7.47;5.20;;;;;;;;;;5049091;28;20072;-87
2023/09/10 12:10:54;;;;;;;7.85;5.30;;;;;;;;;;5043214;28;20025;-89
2023/09/10 12:13:20;;;;;;;6.80;5.30;;;;;;;;;;5021752;28;20033;-84
2023/09/10 12:15:46;;;;;;;6.28;5.05;;;;;;;;;;5043783;28;20044;-87
2023/09/10 12:18:12;;;;;;;6.75;5.20;;;;;;;;;;5049245;28;20025;-88
2023/09/10 12:20:38;;;;;;;6.15;4.97;;;;;;;;;;5039896;28;20052;-88
2023/09/10 12:23:04;;;;;;;6.05;5.00;;;;;;;;;;5038637;28;20074;-89
2023/09/10 12:25:30;;;;;;;6.03;5.43;;;;;;;;;;5044345;28;20514;-89
2023/09/10 12:27:56;;;;;;;7.30;5.13;;;;;;;;;;5040686;28;20037;-89
2023/09/10 12:30:23;;;;;;;8.15;5.00;;;;;;;;;;5053889;28;20040;-89
2023/09/10 12:32:49;;;;;;;8.00;5.30;;;;;;;;;;5053152;28;20036;-89
2023/09/10 12:35:15;;;;;;;6.47;5.07;;;;;;;;;;5051433;28;20052;-88
2023/09/10 12:37:51;;;;;;;6.28;5.32;;;;;;;;;;5050701;28;20538;-89
2023/09/10 12:40:18;;;;;;;6.63;5.43;;;;;;;;;;5045949;28;20484;-89
2023/09/10 12:42:43;;;;;;;8.00;5.30;;;;;;;;;;5049040;28;20124;-89
2023/09/10 12:45:09;;;;;;;7.15;4.93;;;;;;;;;;5041851;28;20052;-90
2023/09/10 12:47:35;;;;;;;5.53;5.00;;;;;;;;;;5043562;28;20033;-89
2023/09/10 12:50:01;;;;;;;5.45;4.90;;;;;;;;;;5041951;28;20033;-88
2023/09/10 12:52:27;;;;;;;5.80;4.80;;;;;;;;;;5041590;28;20032;-89
2023/09/10 12:54:52;;;;;;;5.55;4.80;;;;;;;;;;5041223;28;20068;-88
2023/09/10 12:57:18;;;;;;;7.80;4.82;;;;;;;;;;5048386;28;20093;-88
2023/09/10 12:59:43;;;;;;;5.03;4.53;;;;;;;;;;5047918;28;20393;-88
2023/09/10 13:02:10;;;;;;;5.78;5.05;;;;;;;;;;5048446;28;20471;-88
2023/09/10 13:04:36;;;;;;;6.57;4.82;;;;;;;;;;5026769;28;20094;-89
2023/09/10 13:07:02;;;;;;;9.40;5.00;;;;;;;;;;5043581;28;20041;-89
2023/09/10 13:09:29;;;;;;;5.47;4.78;;;;;;;;;;5039632;28;20041;-90
2023/09/10 13:11:54;;;;;;;6.70;4.72;;;;;;;;;;5037531;28;20033;-89
2023/09/10 13:14:20;;;;;;;7.38;4.75;;;;;;;;;;5043006;28;20037;-89
2023/09/10 13:16:45;;;;;;;7.15;4.65;;;;;;;;;;5041433;28;20037;-89
2023/09/10 13:19:11;;;;;;;8.27;4.80;;;;;;;;;;5040114;28;20033;-89
2023/09/10 13:21:36;;;;;;;6.20;4.78;;;;;;;;;;5046277;28;20039;-89
2023/09/10 13:24:02;;;;;;;9.75;4.68;;;;;;;;;;5044915;28;20029;-89
2023/09/10 13:26:27;;;;;;;7.78;4.70;;;;;;;;;;5043070;28;20108;-89
2023/09/10 13:28:53;;;;;;;7.90;4.93;;;;;;;;;;5046855;28;20029;-88
2023/09/10 13:31:18;;;;;;;6.00;4.97;;;;;;;;;;5038826;28;20048;-89
2023/09/10 13:33:44;;;;;;;8.63;4.47;;;;;;;;;;5035659;28;20044;-88
2023/09/10 13:36:10;;;;;;;6.22;5.03;;;;;;;;;;5042340;28;20035;-90
2023/09/10 13:38:36;;;;;;;5.75;4.43;;;;;;;;;;5042628;28;20037;-89
2023/09/10 13:41:01;;;;;;;6.25;4.68;;;;;;;;;;5046825;28;20040;-89
2023/09/10 13:43:26;;;;;;;7.03;4.90;;;;;;;;;;5049229;28;20041;-89
2023/09/10 13:45:52;;;;;;;7.07;4.70;;;;;;;;;;5037425;28;20033;-88
2023/09/10 13:48:17;;;;;;;7.47;5.05;;;;;;;;;;5040580;28;20029;-88
2023/09/10 13:50:43;;;;;;;8.80;4.90;;;;;;;;;;5041603;28;20435;-91
2023/09/10 13:53:08;;;;;;;8.05;5.00;;;;;;;;;;5035337;28;20037;-90
2023/09/10 13:55:34;;;;;;;5.90;4.68;;;;;;;;;;5044821;28;20119;-89
2023/09/10 13:57:59;;;;;;;7.20;4.80;;;;;;;;;;5046990;28;20099;-90
2023/09/10 14:00:25;;;;;;;6.18;4.60;;;;;;;;;;5040289;28;20117;-89
2023/09/10 14:02:50;;;;;;;6.30;4.60;;;;;;;;;;5045483;28;20102;-89
2023/09/10 14:05:16;;;;;;;5.38;4.25;;;;;;;;;;5042332;28;20044;-89
2023/09/10 14:07:41;;;;;;;6.30;4.50;;;;;;;;;;5038617;28;20433;-90
2023/09/10 14:10:07;;;;;;;7.03;4.90;;;;;;;;;;5036473;28;20155;-88
2023/09/10 14:12:32;;;;;;;5.75;4.45;;;;;;;;;;5046450;28;20036;-89
2023/09/10 14:14:58;;;;;;;7.40;4.50;;;;;;;;;;5045717;28;20124;-90
2023/09/10 14:17:23;;;;;;;5.30;4.80;;;;;;;;;;5039308;28;20037;-88
2023/09/10 14:19:49;;;;;;;6.85;4.53;;;;;;;;;;5040303;28;20041;-88
2023/09/10 14:22:14;;;;;;;5.85;4.75;;;;;;;;;;5043629;28;20127;-89
2023/09/10 14:24:40;;;;;;;7.20;4.90;;;;;;;;;;5042319;28;20036;-90
2023/09/10 14:27:05;;;;;;;6.68;4.53;;;;;;;;;;5048128;28;20039;-88
2023/09/10 14:29:31;;;;;;;10.52;4.60;;;;;;;;;;5039180;28;20037;-89
2023/09/10 14:31:58;;;;;;;6.32;4.93;;;;;;;;;;5040730;28;20128;-89
2023/09/10 14:34:24;;;;;;;6.75;4.50;;;;;;;;;;5035989;28;20047;-88
2023/09/10 14:36:50;;;;;;;5.85;4.60;;;;;;;;;;5040881;28;20032;-88
2023/09/10 14:39:16;;;;;;;7.28;4.88;;;;;;;;;;5052543;28;20037;-86
2023/09/10 14:41:42;;;;;;;9.35;5.40;;;;;;;;;;5044781;28;20044;-89
2023/09/10 14:44:10;;;;;;;7.20;4.82;;;;;;;;;;5041440;28;20498;-88